Time;durP1;ratioP1;P1;durP2;ratioP2;P2;SDS_P1;SDS_P2;PMS_P1;PMS_P2;Temp;Humidity;BMP_temperature;BMP_pressure;BME280_temperature;BME280_humidity;BME280_pressure;Samples;Min_cycle;Max_cycle;Signal;HPM_P1;HPM_P2
2023/05/05 15:43:36;;;;;;;3.60;1.98;;;;;;;18.08;31.82;101011.59;1866495;76;27426;-64
2023/05/05 15:46:03;;;;;;;3.95;2.25;;;;;;;17.79;31.88;101010.39;1756369;81;25545;-62
2023/05/05 15:48:29;;;;;;;2.58;2.02;;;;;;;17.54;31.91;101011.16;1776908;80;27528;-61
2023/05/05 15:51:12;;;;;;;3.85;2.17;;;;;;;17.27;32.21;101013.14;1776949;80;27288;-61
2023/05/05 15:53:39;;;;;;;2.30;2.08;;;;;;;17.07;32.68;101014.20;1710527;83;25461;-59
2023/05/05 15:56:06;;;;;;;5.37;1.72;;;;;;;16.93;32.99;101010.96;1710562;83;25651;-59
2023/05/05 15:58:32;;;;;;;3.90;1.67;;;;;;;16.82;33.34;101011.88;1710705;83;25506;-60
2023/05/05 16:00:58;;;;;;;2.92;1.60;;;;;;;16.69;33.52;101009.66;1721155;83;29673;-60
2023/05/05 16:03:25;;;;;;;3.95;1.75;;;;;;;16.59;34.00;101010.06;1767958;81;26003;-58
2023/05/05 16:05:51;;;;;;;3.27;2.17;;;;;;;16.48;34.25;101012.94;1768057;81;25630;-50
2023/05/05 16:08:18;;;;;;;9.20;5.15;;;;;;;16.35;34.34;101012.06;1768073;81;25407;-53
2023/05/05 16:10:47;;;;;;;6.00;3.62;;;;;;;16.21;34.58;101015.83;1768114;81;25661;-53
2023/05/05 16:13:13;;;;;;;4.58;2.20;;;;;;;16.11;35.01;101014.84;1767818;81;27663;-53
2023/05/05 16:15:40;;;;;;;5.75;2.45;;;;;;;16.00;35.38;101011.66;1768020;81;25731;-53
2023/05/05 16:18:06;;;;;;;4.42;2.67;;;;;;;15.93;35.43;101003.77;1768008;81;25594;-53
2023/05/05 16:20:32;;;;;;;5.62;2.22;;;;;;;15.86;35.78;101008.37;1768027;81;25645;-53
2023/05/05 16:22:58;;;;;;;2.85;2.30;;;;;;;15.80;35.94;101001.48;1768020;81;25506;-53
2023/05/05 16:25:25;;;;;;;4.83;2.75;;;;;;;15.75;35.95;101007.09;1768045;81;27581;-51
2023/05/05 16:27:55;;;;;;;4.47;2.60;;;;;;;15.71;36.33;101002.06;1768050;81;25411;-53
2023/05/05 16:30:20;;;;;;;5.35;2.08;;;;;;;15.68;36.55;101007.05;1737714;80;25467;-51
2023/05/05 16:32:49;;;;;;;4.40;2.17;;;;;;;15.62;36.49;101008.34;1746430;80;27518;-55
2023/05/05 16:35:14;;;;;;;5.53;3.72;;;;;;;15.59;36.38;101012.28;1756612;81;25554;-52
2023/05/05 16:37:40;;;;;;;3.02;2.12;;;;;;;15.50;36.40;101017.19;1776950;80;27558;-54
2023/05/05 16:40:11;;;;;;;3.70;2.22;;;;;;;15.39;36.46;101013.23;1777007;80;25531;-52
2023/05/05 16:42:37;;;;;;;3.42;2.67;;;;;;;15.29;36.61;101010.84;1785364;80;25488;-53
2023/05/05 16:45:06;;;;;;;8.25;3.55;;;;;;;15.19;36.82;101009.78;1762490;81;27508;-53
2023/05/05 16:47:33;;;;;;;6.30;2.02;;;;;;;15.08;36.89;101002.51;1774014;80;25402;-56
2023/05/05 16:49:59;;;;;;;3.55;1.92;;;;;;;14.99;37.06;101002.52;1762536;81;27456;-55
2023/05/05 16:52:25;;;;;;;3.12;1.60;;;;;;;14.89;37.38;101005.57;1773919;80;25902;-57
2023/05/05 16:54:54;;;;;;;5.15;2.83;;;;;;;14.80;37.40;101006.94;1761964;81;25558;-58
2023/05/05 16:57:23;;;;;;;4.40;2.00;;;;;;;14.71;37.60;101005.57;1792903;78;25550;-53
2023/05/05 16:59:50;;;;;;;5.75;2.22;;;;;;;14.66;38.07;101007.09;1762177;81;25578;-53
2023/05/05 17:02:16;;;;;;;6.80;3.12;;;;;;;14.62;37.94;101006.67;1746414;80;27520;-60
2023/05/05 17:04:44;;;;;;;5.08;2.92;;;;;;;14.51;38.13;101001.51;1761906;81;26146;-60
2023/05/05 17:07:10;;;;;;;5.20;2.58;;;;;;;14.40;38.26;101002.92;1793330;80;25563;-58
2023/05/05 17:09:37;;;;;;;3.98;2.33;;;;;;;14.28;38.39;101000.02;1761938;81;25565;-62
2023/05/05 17:12:06;;;;;;;3.72;2.72;;;;;;;14.16;38.68;101000.06;1793328;80;25637;-59
2023/05/05 17:14:32;;;;;;;8.90;3.37;;;;;;;14.08;38.82;101009.02;1762071;81;27658;-58
2023/05/05 17:16:58;;;;;;;6.65;2.90;;;;;;;13.97;39.22;101010.41;1793284;80;25448;-59
2023/05/05 17:19:25;;;;;;;4.12;2.65;;;;;;;13.85;39.41;101011.56;1761934;81;25544;-60
2023/05/05 17:21:53;;;;;;;6.83;2.40;;;;;;;13.75;39.57;101008.55;1793236;80;25630;-59
2023/05/05 17:24:20;;;;;;;4.70;2.77;;;;;;;13.66;39.84;101009.87;1762056;81;25442;-60
2023/05/05 17:26:46;;;;;;;8.58;2.92;;;;;;;13.56;40.04;101021.81;1793251;80;27464;-59
2023/05/05 17:29:18;;;;;;;7.97;3.08;;;;;;;13.43;40.16;101021.33;1761855;81;25438;-60
2023/05/05 17:31:42;;;;;;;;;;;;;;;13.33;40.25;101018.86;1795442;80;25613;-60
2023/05/05 17:34:08;;;;;;;5.85;2.90;;;;;;;13.20;40.75;101012.37;1780233;80;25533;-61
2023/05/05 17:36:34;;;;;;;9.90;4.50;;;;;;;13.07;40.89;101022.96;1793314;80;25554;-56
2023/05/05 17:39:02;;;;;;;47.90;44.45;;;;;;;12.99;41.17;101021.54;1793338;80;27506;-54
2023/05/05 17:41:28;;;;;;;83.90;78.10;;;;;;;12.89;41.31;101019.88;1761941;81;25581;-55
2023/05/05 17:43:55;;;;;;;26.05;23.95;;;;;;;12.79;41.74;101018.19;1778255;80;25464;-59
2023/05/05 17:46:23;;;;;;;78.50;73.33;;;;;;;12.72;41.92;101024.60;1756206;81;25388;-57
2023/05/05 17:48:49;;;;;;;6.95;3.67;;;;;;;12.66;42.08;101021.73;1776389;80;25621;-55
2023/05/05 17:51:16;;;;;;;7.70;3.17;;;;;;;12.57;42.29;101023.02;1776328;80;27489;-56
2023/05/05 17:53:43;;;;;;;5.65;3.58;;;;;;;12.48;42.69;101026.18;1776232;80;25547;-58
2023/05/05 17:56:09;;;;;;;5.55;2.98;;;;;;;12.39;42.87;101026.09;1756258;81;25501;-57
2023/05/05 17:58:36;;;;;;;4.25;3.22;;;;;;;12.30;43.21;101031.43;1770243;81;27295;-59
2023/05/05 18:01:03;;;;;;;5.55;3.27;;;;;;;12.21;43.37;101033.78;1756296;81;25545;-55
2023/05/05 18:03:29;;;;;;;79.30;73.90;;;;;;;12.13;43.78;101040.17;1776313;80;27498;-55
2023/05/05 18:05:56;;;;;;;83.30;77.67;;;;;;;12.04;43.90;101040.63;1776305;80;25386;-54
2023/05/05 18:08:22;;;;;;;129.53;120.85;;;;;;;11.93;44.24;101041.91;1776396;80;25619;-57
2023/05/05 18:10:48;;;;;;;9.65;4.67;;;;;;;11.84;44.66;101043.13;1776328;80;25550;-57
2023/05/05 18:13:14;;;;;;;6.33;4.10;;;;;;;11.77;44.76;101043.52;1776357;80;25563;-59
2023/05/05 18:15:42;;;;;;;6.28;3.55;;;;;;;11.70;45.10;101049.89;1776330;80;27342;-54
2023/05/05 18:18:08;;;;;;;5.33;3.58;;;;;;;11.63;45.06;101048.65;1756131;81;25395;-56
2023/05/05 18:20:34;;;;;;;7.33;3.20;;;;;;;11.56;45.32;101050.39;1776411;80;25545;-57
2023/05/05 18:23:00;;;;;;;5.55;3.62;;;;;;;11.48;45.43;101049.17;1756177;81;26372;-57
2023/05/05 18:25:28;;;;;;;7.30;3.87;;;;;;;11.39;45.53;101057.17;1776350;80;25484;-55
2023/05/05 18:27:54;;;;;;;82.30;76.65;;;;;;;11.33;46.07;101063.77;1776377;80;27545;-57
2023/05/05 18:30:22;;;;;;;46.77;43.63;;;;;;;11.24;46.28;101059.30;1776315;80;25389;-53
2023/05/05 18:32:48;;;;;;;8.05;4.03;;;;;;;11.17;46.46;101063.77;1776322;80;25543;-59
2023/05/05 18:35:16;;;;;;;43.87;40.55;;;;;;;11.08;46.81;101054.67;1776299;80;25654;-58
2023/05/05 18:37:43;;;;;;;84.03;78.00;;;;;;;11.00;47.14;101054.25;1756312;81;25385;-55
2023/05/05 18:40:11;;;;;;;87.10;80.83;;;;;;;10.94;47.38;101053.26;1770372;81;28079;-56
2023/05/05 18:42:38;;;;;;;79.35;74.17;;;;;;;10.89;47.61;101063.59;1756115;81;25460;-56
2023/05/05 18:45:09;;;;;;;5.50;5.28;;;;;;;10.83;47.81;101051.25;1770313;81;25571;-55
2023/05/05 18:47:38;;;;;;;78.45;72.78;;;;;;;;;;1756285;81;25463;-53
2023/05/05 18:50:08;;;;;;;15.25;14.45;;;;;;;;;;1756306;81;25382;-58
2023/05/05 18:52:35;;;;;;;105.53;97.83;;;;;;;;;;1756442;79;27923;-59
